sensor_id;sensor_type;location;lat;lon;timestamp;noise_LAeq;noise_LA_min;noise_LA_max;noise_LA01;noise_LA95
49215;Laerm;45943;53.148;8.204;2023-11-21T00:01:19;41.02;37.72;47.19;;
49215;Laerm;45943;53.148;8.204;2023-11-21T00:03:45;41.43;37.29;44.18;;
49215;Laerm;45943;53.148;8.204;2023-11-21T00:06:11;41.15;37.72;43.25;;
49215;Laerm;45943;53.148;8.204;2023-11-21T00:08:37;41.92;37.72;46.80;;
49215;Laerm;45943;53.148;8.204;2023-11-21T00:11:03;58.50;38.78;68.94;;
49215;Laerm;45943;53.148;8.204;2023-11-21T00:13:32;57.03;38.81;69.13;;
49215;Laerm;45943;53.148;8.204;2023-11-21T00:15:58;41.37;38.12;44.67;;
49215;Laerm;45943;53.148;8.204;2023-11-21T00:18:24;59.34;39.68;72.86;;
49215;Laerm;45943;53.148;8.204;2023-11-21T00:20:50;43.38;39.41;49.56;;
49215;Laerm;45943;53.148;8.204;2023-11-21T00:23:16;43.79;37.72;53.95;;
49215;Laerm;45943;53.148;8.204;2023-11-21T00:25:43;42.52;38.48;45.87;;
49215;Laerm;45943;53.148;8.204;2023-11-21T00:28:09;41.50;37.92;46.29;;
49215;Laerm;45943;53.148;8.204;2023-11-21T00:30:35;41.03;36.80;49.02;;
49215;Laerm;45943;53.148;8.204;2023-11-21T00:33:01;41.61;37.92;58.31;;
49215;Laerm;45943;53.148;8.204;2023-11-21T00:35:27;40.75;37.29;52.89;;
49215;Laerm;45943;53.148;8.204;2023-11-21T00:37:53;40.43;35.96;45.74;;
49215;Laerm;45943;53.148;8.204;2023-11-21T00:40:19;41.34;35.64;46.11;;
49215;Laerm;45943;53.148;8.204;2023-11-21T00:42:47;61.99;38.12;75.26;;
49215;Laerm;45943;53.148;8.204;2023-11-21T00:45:13;41.97;36.26;54.87;;
49215;Laerm;45943;53.148;8.204;2023-11-21T00:47:39;42.34;36.54;46.35;;
49215;Laerm;45943;53.148;8.204;2023-11-21T00:50:05;40.71;36.54;43.19;;
49215;Laerm;45943;53.148;8.204;2023-11-21T00:52:35;40.64;36.54;43.58;;
49215;Laerm;45943;53.148;8.204;2023-11-21T00:55:02;41.10;37.51;50.43;;
49215;Laerm;45943;53.148;8.204;2023-11-21T00:57:29;40.73;36.54;55.00;;
49215;Laerm;45943;53.148;8.204;2023-11-21T00:59:55;41.10;37.72;50.53;;
49215;Laerm;45943;53.148;8.204;2023-11-21T01:02:21;40.87;37.29;44.18;;
49215;Laerm;45943;53.148;8.204;2023-11-21T01:04:47;50.00;37.51;69.80;;
49215;Laerm;45943;53.148;8.204;2023-11-21T01:07:13;40.52;35.64;54.87;;
49215;Laerm;45943;53.148;8.204;2023-11-21T01:09:39;40.89;37.29;43.69;;
49215;Laerm;45943;53.148;8.204;2023-11-21T01:12:05;40.87;37.72;47.70;;
49215;Laerm;45943;53.148;8.204;2023-11-21T01:14:32;40.50;35.96;43.64;;
49215;Laerm;45943;53.148;8.204;2023-11-21T01:16:58;39.85;35.29;44.50;;
49215;Laerm;45943;53.148;8.204;2023-11-21T01:19:24;40.37;36.26;46.32;;
49215;Laerm;45943;53.148;8.204;2023-11-21T01:21:50;39.99;36.26;46.54;;
49215;Laerm;45943;53.148;8.204;2023-11-21T01:24:17;40.33;36.26;44.99;;
49215;Laerm;45943;53.148;8.204;2023-11-21T01:26:43;39.91;35.64;43.64;;
49215;Laerm;45943;53.148;8.204;2023-11-21T01:29:13;40.13;35.96;43.64;;
49215;Laerm;45943;53.148;8.204;2023-11-21T01:31:40;45.92;36.26;64.29;;
49215;Laerm;45943;53.148;8.204;2023-11-21T01:34:07;40.48;36.26;56.98;;
49215;Laerm;45943;53.148;8.204;2023-11-21T01:36:33;39.41;35.96;42.42;;
49215;Laerm;45943;53.148;8.204;2023-11-21T01:38:59;39.16;35.96;43.84;;
49215;Laerm;45943;53.148;8.204;2023-11-21T01:41:29;39.22;35.64;44.09;;
49215;Laerm;45943;53.148;8.204;2023-11-21T01:43:55;39.19;35.29;43.74;;
49215;Laerm;45943;53.148;8.204;2023-11-21T01:46:22;39.32;35.64;47.88;;
49215;Laerm;45943;53.148;8.204;2023-11-21T01:48:49;51.75;35.96;74.50;;
49215;Laerm;45943;53.148;8.204;2023-11-21T01:51:16;40.29;35.96;43.53;;
49215;Laerm;45943;53.148;8.204;2023-11-21T01:53:42;40.23;35.96;46.98;;
49215;Laerm;45943;53.148;8.204;2023-11-21T01:56:08;39.91;36.54;48.36;;
49215;Laerm;45943;53.148;8.204;2023-11-21T01:58:35;42.77;35.96;50.48;;
49215;Laerm;45943;53.148;8.204;2023-11-21T02:01:01;40.07;36.54;46.83;;
49215;Laerm;45943;53.148;8.204;2023-11-21T02:03:27;39.89;36.80;42.82;;
49215;Laerm;45943;53.148;8.204;2023-11-21T02:05:53;40.59;37.05;43.13;;
49215;Laerm;45943;53.148;8.204;2023-11-21T02:08:19;39.85;36.70;42.82;;
49215;Laerm;45943;53.148;8.204;2023-11-21T02:10:45;40.33;36.26;44.14;;
49215;Laerm;45943;53.148;8.204;2023-11-21T02:13:11;39.92;35.64;42.76;;
49215;Laerm;45943;53.148;8.204;2023-11-21T02:15:38;39.63;36.54;42.76;;
49215;Laerm;45943;53.148;8.204;2023-11-21T02:18:05;39.48;35.64;41.98;;
49215;Laerm;45943;53.148;8.204;2023-11-21T02:20:32;39.60;35.96;43.94;;
49215;Laerm;45943;53.148;8.204;2023-11-21T02:23:00;39.95;36.80;43.89;;
49215;Laerm;45943;53.148;8.204;2023-11-21T02:25:29;39.99;36.26;43.69;;
49215;Laerm;45943;53.148;8.204;2023-11-21T02:27:56;43.33;36.80;53.38;;
49215;Laerm;45943;53.148;8.204;2023-11-21T02:30:22;41.14;37.72;49.29;;
49215;Laerm;45943;53.148;8.204;2023-11-21T02:32:48;40.94;37.51;43.69;;
49215;Laerm;45943;53.148;8.204;2023-11-21T02:35:14;57.49;37.51;68.74;;
49215;Laerm;45943;53.148;8.204;2023-11-21T02:37:41;42.46;37.29;59.65;;
49215;Laerm;45943;53.148;8.204;2023-11-21T02:40:09;41.31;37.72;53.40;;
49215;Laerm;45943;53.148;8.204;2023-11-21T02:42:39;51.16;37.51;71.35;;
49215;Laerm;45943;53.148;8.204;2023-11-21T02:45:06;40.69;36.26;54.40;;
49215;Laerm;45943;53.148;8.204;2023-11-21T02:47:32;40.79;36.80;45.74;;
49215;Laerm;45943;53.148;8.204;2023-11-21T02:49:59;41.39;37.51;48.80;;
49215;Laerm;45943;53.148;8.204;2023-11-21T02:52:25;41.91;38.12;45.47;;
49215;Laerm;45943;53.148;8.204;2023-11-21T02:54:51;61.51;40.06;73.08;;
49215;Laerm;45943;53.148;8.204;2023-11-21T02:57:17;41.50;37.05;45.07;;
49215;Laerm;45943;53.148;8.204;2023-11-21T02:59:44;41.31;37.72;46.26;;
49215;Laerm;45943;53.148;8.204;2023-11-21T03:02:10;41.18;38.30;51.25;;
49215;Laerm;45943;53.148;8.204;2023-11-21T03:04:36;40.71;37.29;50.60;;
49215;Laerm;45943;53.148;8.204;2023-11-21T03:07:02;40.63;37.92;44.28;;
49215;Laerm;45943;53.148;8.204;2023-11-21T03:09:29;40.45;37.05;44.87;;
49215;Laerm;45943;53.148;8.204;2023-11-21T03:11:55;41.20;38.12;44.50;;
49215;Laerm;45943;53.148;8.204;2023-11-21T03:14:21;40.71;37.72;50.89;;
49215;Laerm;45943;53.148;8.204;2023-11-21T03:16:48;40.17;37.58;47.31;;
49215;Laerm;45943;53.148;8.204;2023-11-21T03:19:15;53.05;37.51;72.74;;
49215;Laerm;45943;53.148;8.204;2023-11-21T03:21:41;41.54;38.48;46.85;;
49215;Laerm;45943;53.148;8.204;2023-11-21T03:24:07;40.89;37.05;45.99;;
49215;Laerm;45943;53.148;8.204;2023-11-21T03:26:33;41.09;38.30;43.69;;
49215;Laerm;45943;53.148;8.204;2023-11-21T03:28:59;41.01;37.92;44.83;;
49215;Laerm;45943;53.148;8.204;2023-11-21T03:31:25;40.89;38.12;45.36;;
49215;Laerm;45943;53.148;8.204;2023-11-21T03:33:52;47.99;38.12;67.46;;
49215;Laerm;45943;53.148;8.204;2023-11-21T03:36:19;41.29;38.65;43.84;;
49215;Laerm;45943;53.148;8.204;2023-11-21T03:38:45;41.22;37.95;44.99;;
49215;Laerm;45943;53.148;8.204;2023-11-21T03:41:11;40.83;38.12;44.54;;
49215;Laerm;45943;53.148;8.204;2023-11-21T03:43:37;49.66;38.30;69.40;;
49215;Laerm;45943;53.148;8.204;2023-11-21T03:46:03;41.62;38.30;54.06;;
49215;Laerm;45943;53.148;8.204;2023-11-21T03:48:29;41.70;38.65;53.82;;
49215;Laerm;45943;53.148;8.204;2023-11-21T03:50:55;40.79;38.30;44.63;;
49215;Laerm;45943;53.148;8.204;2023-11-21T03:53:21;40.31;37.51;44.28;;
49215;Laerm;45943;53.148;8.204;2023-11-21T03:55:47;49.12;38.12;68.92;;
49215;Laerm;45943;53.148;8.204;2023-11-21T03:58:13;51.27;38.97;71.99;;
49215;Laerm;45943;53.148;8.204;2023-11-21T04:00:39;41.09;38.12;46.35;;
49215;Laerm;45943;53.148;8.204;2023-11-21T04:03:05;41.43;38.65;50.32;;
49215;Laerm;45943;53.148;8.204;2023-11-21T04:05:31;41.88;38.97;45.61;;
49215;Laerm;45943;53.148;8.204;2023-11-21T04:07:57;50.01;39.94;69.57;;
49215;Laerm;45943;53.148;8.204;2023-11-21T04:10:23;41.46;38.81;43.64;;
49215;Laerm;45943;53.148;8.204;2023-11-21T04:12:49;50.51;38.81;70.14;;
49215;Laerm;45943;53.148;8.204;2023-11-21T04:15:15;42.92;39.12;52.02;;
49215;Laerm;45943;53.148;8.204;2023-11-21T04:17:42;41.83;39.12;50.30;;
49215;Laerm;45943;53.148;8.204;2023-11-21T04:20:08;41.70;38.48;48.73;;
49215;Laerm;45943;53.148;8.204;2023-11-21T04:22:39;47.87;39.12;68.20;;
49215;Laerm;45943;53.148;8.204;2023-11-21T04:25:14;52.75;39.41;68.92;;
49215;Laerm;45943;53.148;8.204;2023-11-21T04:27:41;48.59;39.41;67.52;;
49215;Laerm;45943;53.148;8.204;2023-11-21T04:30:10;52.18;39.94;69.72;;
49215;Laerm;45943;53.148;8.204;2023-11-21T04:32:37;46.21;39.94;64.62;;
49215;Laerm;45943;53.148;8.204;2023-11-21T04:35:03;59.31;40.52;72.22;;
49215;Laerm;45943;53.148;8.204;2023-11-21T04:37:29;49.04;40.73;67.43;;
49215;Laerm;45943;53.148;8.204;2023-11-21T04:39:55;53.90;40.73;72.52;;
49215;Laerm;45943;53.148;8.204;2023-11-21T04:42:21;51.91;40.41;67.23;;
49215;Laerm;45943;53.148;8.204;2023-11-21T04:44:48;48.52;39.55;65.16;;
49215;Laerm;45943;53.148;8.204;2023-11-21T04:47:15;46.14;40.41;65.33;;
49215;Laerm;45943;53.148;8.204;2023-11-21T04:49:42;43.42;40.41;57.57;;
49215;Laerm;45943;53.148;8.204;2023-11-21T04:52:08;51.07;39.94;72.01;;
49215;Laerm;45943;53.148;8.204;2023-11-21T04:54:35;43.73;40.30;55.98;;
49215;Laerm;45943;53.148;8.204;2023-11-21T04:57:01;53.93;40.52;71.82;;
49215;Laerm;45943;53.148;8.204;2023-11-21T04:59:27;43.44;40.30;52.94;;
49215;Laerm;45943;53.148;8.204;2023-11-21T05:01:53;51.82;40.52;71.37;;
49215;Laerm;45943;53.148;8.204;2023-11-21T05:04:20;52.88;40.52;70.92;;
49215;Laerm;45943;53.148;8.204;2023-11-21T05:06:48;44.51;40.06;62.53;;
49215;Laerm;45943;53.148;8.204;2023-11-21T05:09:14;43.39;41.03;48.83;;
49215;Laerm;45943;53.148;8.204;2023-11-21T05:11:41;49.24;39.94;64.46;;
49215;Laerm;45943;53.148;8.204;2023-11-21T05:14:07;45.38;40.18;59.39;;
49215;Laerm;45943;53.148;8.204;2023-11-21T05:16:34;47.88;40.18;66.24;;
49215;Laerm;45943;53.148;8.204;2023-11-21T05:19:01;43.35;40.41;62.01;;
49215;Laerm;45943;53.148;8.204;2023-11-21T05:21:27;55.24;41.58;70.20;;
49215;Laerm;45943;53.148;8.204;2023-11-21T05:23:55;51.11;41.31;68.30;;
49215;Laerm;45943;53.148;8.204;2023-11-21T05:26:24;53.10;41.40;68.62;;
49215;Laerm;45943;53.148;8.204;2023-11-21T05:28:50;46.41;41.03;62.02;;
49215;Laerm;45943;53.148;8.204;2023-11-21T05:31:16;53.40;40.93;68.33;;
49215;Laerm;45943;53.148;8.204;2023-11-21T05:33:42;55.41;41.40;74.64;;
49215;Laerm;45943;53.148;8.204;2023-11-21T05:36:08;53.24;41.22;70.91;;
49215;Laerm;45943;53.148;8.204;2023-11-21T05:38:36;43.93;41.40;53.71;;
49215;Laerm;45943;53.148;8.204;2023-11-21T05:41:02;55.40;42.21;71.90;;
49215;Laerm;45943;53.148;8.204;2023-11-21T05:43:29;49.65;41.90;67.80;;
49215;Laerm;45943;53.148;8.204;2023-11-21T05:45:56;51.83;41.74;68.97;;
49215;Laerm;45943;53.148;8.204;2023-11-21T05:48:22;53.54;41.90;70.38;;
49215;Laerm;45943;53.148;8.204;2023-11-21T05:50:49;51.32;42.06;68.00;;
49215;Laerm;45943;53.148;8.204;2023-11-21T05:53:15;62.13;42.89;76.88;;
49215;Laerm;45943;53.148;8.204;2023-11-21T05:55:42;56.35;42.76;83.43;;
49215;Laerm;45943;53.148;8.204;2023-11-21T05:58:08;44.25;41.98;50.86;;
49215;Laerm;45943;53.148;8.204;2023-11-21T06:00:34;49.59;42.28;69.64;;
49215;Laerm;45943;53.148;8.204;2023-11-21T06:03:01;52.81;42.13;67.18;;
49215;Laerm;45943;53.148;8.204;2023-11-21T06:05:28;51.18;41.82;70.31;;
49215;Laerm;45943;53.148;8.204;2023-11-21T06:07:55;52.95;42.21;69.48;;
49215;Laerm;45943;53.148;8.204;2023-11-21T06:10:24;54.82;42.28;73.12;;
49215;Laerm;45943;53.148;8.204;2023-11-21T06:12:51;55.72;42.63;71.89;;
49215;Laerm;45943;53.148;8.204;2023-11-21T06:15:17;52.87;42.42;72.70;;
49215;Laerm;45943;53.148;8.204;2023-11-21T06:17:45;55.27;42.06;70.57;;
49215;Laerm;45943;53.148;8.204;2023-11-21T06:20:15;54.52;41.93;69.49;;
49215;Laerm;45943;53.148;8.204;2023-11-21T06:22:42;57.26;42.82;71.70;;
49215;Laerm;45943;53.148;8.204;2023-11-21T06:25:08;54.83;41.90;70.25;;
49215;Laerm;45943;53.148;8.204;2023-11-21T06:30:06;57.31;42.63;72.80;;
49215;Laerm;45943;53.148;8.204;2023-11-21T06:32:34;56.26;42.82;83.36;;
49215;Laerm;45943;53.148;8.204;2023-11-21T06:35:05;54.26;42.89;75.73;;
49215;Laerm;45943;53.148;8.204;2023-11-21T06:37:31;52.05;43.13;67.75;;
49215;Laerm;45943;53.148;8.204;2023-11-21T06:39:58;52.38;42.13;67.57;;
49215;Laerm;45943;53.148;8.204;2023-11-21T06:42:25;55.59;43.01;69.13;;
49215;Laerm;45943;53.148;8.204;2023-11-21T06:44:51;57.62;43.25;70.84;;
49215;Laerm;45943;53.148;8.204;2023-11-21T06:47:18;57.57;43.13;72.98;;
49215;Laerm;45943;53.148;8.204;2023-11-21T06:49:46;55.58;43.13;69.43;;
49215;Laerm;45943;53.148;8.204;2023-11-21T06:52:14;57.06;43.99;75.39;;
49215;Laerm;45943;53.148;8.204;2023-11-21T06:54:40;62.10;43.79;80.88;;
49215;Laerm;45943;53.148;8.204;2023-11-21T06:57:06;53.90;43.55;69.65;;
49215;Laerm;45943;53.148;8.204;2023-11-21T06:59:32;55.79;43.64;71.52;;
49215;Laerm;45943;53.148;8.204;2023-11-21T07:01:58;57.35;43.74;71.27;;
49215;Laerm;45943;53.148;8.204;2023-11-21T07:05:12;55.15;43.36;71.71;;
49215;Laerm;45943;53.148;8.204;2023-11-21T07:07:37;53.80;43.31;69.17;;
49215;Laerm;45943;53.148;8.204;2023-11-21T07:10:03;58.23;43.36;71.60;;
49215;Laerm;45943;53.148;8.204;2023-11-21T07:12:30;54.73;43.53;68.78;;
49215;Laerm;45943;53.148;8.204;2023-11-21T07:15:06;54.99;43.13;71.35;;
49215;Laerm;45943;53.148;8.204;2023-11-21T07:17:35;54.93;43.13;72.13;;
49215;Laerm;45943;53.148;8.204;2023-11-21T07:20:02;57.98;43.48;71.43;;
49215;Laerm;45943;53.148;8.204;2023-11-21T07:22:28;56.52;43.53;73.22;;
49215;Laerm;45943;53.148;8.204;2023-11-21T07:24:55;55.91;43.64;70.23;;
49215;Laerm;45943;53.148;8.204;2023-11-21T07:27:22;56.25;43.48;72.36;;
49215;Laerm;45943;53.148;8.204;2023-11-21T07:29:48;60.48;43.69;72.93;;
49215;Laerm;45943;53.148;8.204;2023-11-21T07:32:14;56.14;43.25;72.22;;
49215;Laerm;45943;53.148;8.204;2023-11-21T07:34:41;57.68;43.31;80.03;;
49215;Laerm;45943;53.148;8.204;2023-11-21T07:37:09;55.63;43.89;72.84;;
49215;Laerm;45943;53.148;8.204;2023-11-21T07:39:35;57.95;44.09;70.69;;
49215;Laerm;45943;53.148;8.204;2023-11-21T07:42:02;58.39;43.69;75.11;;
49215;Laerm;45943;53.148;8.204;2023-11-21T07:44:28;54.57;43.53;69.59;;
49215;Laerm;45943;53.148;8.204;2023-11-21T07:46:54;56.02;43.64;69.53;;
49215;Laerm;45943;53.148;8.204;2023-11-21T07:49:24;53.81;43.48;71.34;;
49215;Laerm;45943;53.148;8.204;2023-11-21T07:51:50;56.98;42.82;70.41;;
49215;Laerm;45943;53.148;8.204;2023-11-21T07:54:16;57.85;44.14;71.22;;
49215;Laerm;45943;53.148;8.204;2023-11-21T07:56:42;51.42;43.13;66.66;;
49215;Laerm;45943;53.148;8.204;2023-11-21T07:59:08;51.70;42.69;69.11;;
49215;Laerm;45943;53.148;8.204;2023-11-21T08:01:34;53.88;43.01;67.72;;
49215;Laerm;45943;53.148;8.204;2023-11-21T08:04:00;57.23;42.89;72.61;;
49215;Laerm;45943;53.148;8.204;2023-11-21T08:06:29;54.42;42.76;70.31;;
49215;Laerm;45943;53.148;8.204;2023-11-21T08:08:56;55.82;43.42;71.46;;
49215;Laerm;45943;53.148;8.204;2023-11-21T08:11:22;57.35;42.90;72.69;;
49215;Laerm;45943;53.148;8.204;2023-11-21T08:13:48;55.81;42.95;72.29;;
49215;Laerm;45943;53.148;8.204;2023-11-21T08:16:15;52.24;41.98;68.86;;
49215;Laerm;45943;53.148;8.204;2023-11-21T08:18:41;54.87;42.95;72.98;;
49215;Laerm;45943;53.148;8.204;2023-11-21T08:21:07;52.61;43.64;71.33;;
49215;Laerm;45943;53.148;8.204;2023-11-21T08:23:34;54.89;42.13;72.23;;
49215;Laerm;45943;53.148;8.204;2023-11-21T08:26:00;53.93;42.76;68.65;;
49215;Laerm;45943;53.148;8.204;2023-11-21T08:28:27;56.92;43.36;72.42;;
49215;Laerm;45943;53.148;8.204;2023-11-21T08:30:53;49.16;41.98;65.76;;
49215;Laerm;45943;53.148;8.204;2023-11-21T08:33:22;51.08;42.95;67.31;;
49215;Laerm;45943;53.148;8.204;2023-11-21T08:35:48;54.96;43.31;65.96;;
49215;Laerm;45943;53.148;8.204;2023-11-21T08:38:15;55.40;43.19;70.15;;
49215;Laerm;45943;53.148;8.204;2023-11-21T08:40:40;55.11;43.94;70.69;;
49215;Laerm;45943;53.148;8.204;2023-11-21T08:43:06;56.38;43.25;72.64;;
49215;Laerm;45943;53.148;8.204;2023-11-21T08:45:34;54.62;42.56;68.89;;
49215;Laerm;45943;53.148;8.204;2023-11-21T08:48:01;55.17;42.95;74.21;;
49215;Laerm;45943;53.148;8.204;2023-11-21T08:50:27;56.80;43.36;71.61;;
49215;Laerm;45943;53.148;8.204;2023-11-21T08:52:53;54.62;43.01;70.15;;
49215;Laerm;45943;53.148;8.204;2023-11-21T08:55:20;55.29;43.13;72.26;;
49215;Laerm;45943;53.148;8.204;2023-11-21T08:57:46;60.27;43.36;78.77;;
49215;Laerm;45943;53.148;8.204;2023-11-21T09:00:12;55.79;43.19;72.28;;
49215;Laerm;45943;53.148;8.204;2023-11-21T09:02:43;59.19;43.69;71.61;;
49215;Laerm;45943;53.148;8.204;2023-11-21T09:05:10;57.14;43.36;76.33;;
49215;Laerm;45943;53.148;8.204;2023-11-21T09:07:38;58.67;43.42;77.08;;
49215;Laerm;45943;53.148;8.204;2023-11-21T09:10:04;50.01;42.76;70.03;;
49215;Laerm;45943;53.148;8.204;2023-11-21T09:12:34;58.29;42.69;77.24;;
49215;Laerm;45943;53.148;8.204;2023-11-21T09:15:04;54.30;42.76;72.94;;
49215;Laerm;45943;53.148;8.204;2023-11-21T09:17:32;54.78;42.82;72.35;;
49215;Laerm;45943;53.148;8.204;2023-11-21T09:19:58;55.15;43.48;73.19;;
49215;Laerm;45943;53.148;8.204;2023-11-21T09:22:24;55.59;43.36;70.98;;
49215;Laerm;45943;53.148;8.204;2023-11-21T09:24:51;52.44;43.01;69.98;;
49215;Laerm;45943;53.148;8.204;2023-11-21T09:27:18;55.24;43.69;72.14;;
49215;Laerm;45943;53.148;8.204;2023-11-21T09:29:44;54.81;43.36;69.86;;
49215;Laerm;45943;53.148;8.204;2023-11-21T09:32:11;53.48;43.13;70.07;;
49215;Laerm;45943;53.148;8.204;2023-11-21T09:34:40;56.11;40.87;77.31;;
49215;Laerm;45943;53.148;8.204;2023-11-21T09:37:06;55.55;43.31;71.97;;
49215;Laerm;45943;53.148;8.204;2023-11-21T09:39:32;55.09;43.36;70.73;;
49215;Laerm;45943;53.148;8.204;2023-11-21T09:42:08;55.76;42.63;73.63;;
49215;Laerm;45943;53.148;8.204;2023-11-21T09:44:46;53.51;42.76;71.07;;
49215;Laerm;45943;53.148;8.204;2023-11-21T09:47:17;53.74;42.42;72.13;;
49215;Laerm;45943;53.148;8.204;2023-11-21T09:49:47;54.60;42.76;69.37;;
49215;Laerm;45943;53.148;8.204;2023-11-21T09:52:24;56.24;42.56;70.68;;
49215;Laerm;45943;53.148;8.204;2023-11-21T09:54:55;53.41;42.69;70.67;;
49215;Laerm;45943;53.148;8.204;2023-11-21T09:57:24;53.79;42.63;72.15;;
49215;Laerm;45943;53.148;8.204;2023-11-21T09:59:51;52.85;41.98;69.64;;
49215;Laerm;45943;53.148;8.204;2023-11-21T10:02:25;58.22;42.95;75.77;;
49215;Laerm;45943;53.148;8.204;2023-11-21T10:04:52;54.20;42.13;67.45;;
49215;Laerm;45943;53.148;8.204;2023-11-21T10:07:20;55.72;42.06;71.14;;
49215;Laerm;45943;53.148;8.204;2023-11-21T10:09:47;56.27;43.01;73.70;;
49215;Laerm;45943;53.148;8.204;2023-11-21T10:12:17;58.89;42.63;72.78;;
49215;Laerm;45943;53.148;8.204;2023-11-21T10:14:48;53.35;42.63;69.02;;
49215;Laerm;45943;53.148;8.204;2023-11-21T10:17:15;56.92;43.13;71.23;;
49215;Laerm;45943;53.148;8.204;2023-11-21T10:19:46;56.24;42.35;82.24;;
49215;Laerm;45943;53.148;8.204;2023-11-21T10:22:14;58.24;45.03;69.86;;
49215;Laerm;45943;53.148;8.204;2023-11-21T10:24:41;56.78;43.45;73.04;;
49215;Laerm;45943;53.148;8.204;2023-11-21T10:27:08;57.08;43.13;72.14;;
49215;Laerm;45943;53.148;8.204;2023-11-21T10:29:34;53.06;42.42;70.95;;
49215;Laerm;45943;53.148;8.204;2023-11-21T10:32:02;53.21;42.35;69.71;;
49215;Laerm;45943;53.148;8.204;2023-11-21T10:34:29;53.05;43.31;68.14;;
49215;Laerm;45943;53.148;8.204;2023-11-21T10:36:55;58.41;43.36;74.84;;
49215;Laerm;45943;53.148;8.204;2023-11-21T10:39:24;54.48;42.42;67.75;;
49215;Laerm;45943;53.148;8.204;2023-11-21T10:41:54;52.98;42.49;67.48;;
49215;Laerm;45943;53.148;8.204;2023-11-21T10:44:21;57.46;43.53;70.26;;
49215;Laerm;45943;53.148;8.204;2023-11-21T10:46:52;57.13;42.69;75.44;;
49215;Laerm;45943;53.148;8.204;2023-11-21T10:49:25;56.43;42.42;74.19;;
49215;Laerm;45943;53.148;8.204;2023-11-21T10:51:53;54.04;42.63;68.06;;
49215;Laerm;45943;53.148;8.204;2023-11-21T10:54:20;56.02;42.95;71.21;;
49215;Laerm;45943;53.148;8.204;2023-11-21T10:56:50;58.73;42.06;74.58;;
49215;Laerm;45943;53.148;8.204;2023-11-21T10:59:19;54.86;42.42;71.23;;
49215;Laerm;45943;53.148;8.204;2023-11-21T11:01:47;57.50;42.63;72.01;;
49215;Laerm;45943;53.148;8.204;2023-11-21T11:04:18;53.44;42.42;73.52;;
49215;Laerm;45943;53.148;8.204;2023-11-21T11:06:51;53.08;41.98;70.09;;
49215;Laerm;45943;53.148;8.204;2023-11-21T11:09:20;54.06;42.89;70.15;;
49215;Laerm;45943;53.148;8.204;2023-11-21T11:11:46;62.39;42.56;80.61;;
49215;Laerm;45943;53.148;8.204;2023-11-21T11:14:13;54.97;42.13;72.37;;
49215;Laerm;45943;53.148;8.204;2023-11-21T11:16:40;54.60;43.07;74.79;;
49215;Laerm;45943;53.148;8.204;2023-11-21T11:19:11;57.05;43.89;71.05;;
49215;Laerm;45943;53.148;8.204;2023-11-21T11:24:44;59.02;45.67;74.64;;
49215;Laerm;45943;53.148;8.204;2023-11-21T11:37:44;54.19;41.90;76.29;;
49215;Laerm;45943;53.148;8.204;2023-11-21T11:40:11;59.23;42.35;80.56;;
49215;Laerm;45943;53.148;8.204;2023-11-21T11:42:37;57.65;43.24;72.83;;
49215;Laerm;45943;53.148;8.204;2023-11-21T11:45:17;56.15;41.98;69.51;;
49215;Laerm;45943;53.148;8.204;2023-11-21T11:47:47;50.92;42.06;68.36;;
49215;Laerm;45943;53.148;8.204;2023-11-21T11:50:13;56.42;42.21;71.76;;
49215;Laerm;45943;53.148;8.204;2023-11-21T11:52:43;61.99;43.79;71.88;;
49215;Laerm;45943;53.148;8.204;2023-11-21T11:55:15;55.29;42.95;73.72;;
49215;Laerm;45943;53.148;8.204;2023-11-21T11:57:45;53.60;42.06;68.59;;
49215;Laerm;45943;53.148;8.204;2023-11-21T12:00:17;54.84;42.21;74.33;;
49215;Laerm;45943;53.148;8.204;2023-11-21T12:02:49;57.82;42.49;72.26;;
49215;Laerm;45943;53.148;8.204;2023-11-21T12:05:19;56.32;42.49;71.84;;
49215;Laerm;45943;53.148;8.204;2023-11-21T12:07:50;54.86;43.13;75.49;;
49215;Laerm;45943;53.148;8.204;2023-11-21T12:10:23;55.97;43.01;68.96;;
49215;Laerm;45943;53.148;8.204;2023-11-21T12:12:52;54.62;42.69;67.13;;
49215;Laerm;45943;53.148;8.204;2023-11-21T12:15:19;59.47;43.74;69.06;;
49215;Laerm;45943;53.148;8.204;2023-11-21T12:17:58;56.12;42.95;72.59;;
49215;Laerm;45943;53.148;8.204;2023-11-21T12:20:27;55.23;43.19;68.01;;
49215;Laerm;45943;53.148;8.204;2023-11-21T12:22:55;55.34;43.25;68.04;;
49215;Laerm;45943;53.148;8.204;2023-11-21T12:25:27;54.66;43.94;72.33;;
49215;Laerm;45943;53.148;8.204;2023-11-21T12:27:55;52.22;42.76;66.35;;
49215;Laerm;45943;53.148;8.204;2023-11-21T12:30:30;53.66;42.13;68.15;;
49215;Laerm;45943;53.148;8.204;2023-11-21T12:33:02;56.78;42.82;71.43;;
49215;Laerm;45943;53.148;8.204;2023-11-21T12:35:30;56.15;42.95;73.86;;
49215;Laerm;45943;53.148;8.204;2023-11-21T12:37:57;55.27;42.89;71.59;;
49215;Laerm;45943;53.148;8.204;2023-11-21T12:40:26;53.31;42.56;69.09;;
49215;Laerm;45943;53.148;8.204;2023-11-21T12:42:55;55.70;42.56;68.48;;
49215;Laerm;45943;53.148;8.204;2023-11-21T12:45:23;58.38;43.48;68.64;;
49215;Laerm;45943;53.148;8.204;2023-11-21T12:47:54;55.07;42.13;68.38;;
49215;Laerm;45943;53.148;8.204;2023-11-21T12:50:25;57.34;43.01;76.07;;
49215;Laerm;45943;53.148;8.204;2023-11-21T12:52:58;59.90;42.82;85.86;;
49215;Laerm;45943;53.148;8.204;2023-11-21T12:55:25;55.01;42.95;69.52;;
49215;Laerm;45943;53.148;8.204;2023-11-21T12:57:53;56.47;44.09;71.95;;
49215;Laerm;45943;53.148;8.204;2023-11-21T13:00:33;53.24;43.99;68.14;;
49215;Laerm;45943;53.148;8.204;2023-11-21T13:03:04;58.66;44.75;70.13;;
49215;Laerm;45943;53.148;8.204;2023-11-21T13:05:33;56.15;42.49;72.93;;
49215;Laerm;45943;53.148;8.204;2023-11-21T13:08:02;52.83;42.69;70.83;;
49215;Laerm;45943;53.148;8.204;2023-11-21T13:10:31;56.63;43.07;71.58;;
49215;Laerm;45943;53.148;8.204;2023-11-21T13:13:01;50.28;42.13;69.77;;
49215;Laerm;45943;53.148;8.204;2023-11-21T13:15:31;56.79;42.79;71.31;;
49215;Laerm;45943;53.148;8.204;2023-11-21T13:17:58;51.61;43.19;64.80;;
49215;Laerm;45943;53.148;8.204;2023-11-21T13:20:25;51.25;43.89;67.73;;
49215;Laerm;45943;53.148;8.204;2023-11-21T13:22:53;55.54;43.36;68.18;;
49215;Laerm;45943;53.148;8.204;2023-11-21T13:25:23;58.46;43.36;75.16;;
49215;Laerm;45943;53.148;8.204;2023-11-21T13:27:49;55.72;42.84;72.24;;
49215;Laerm;45943;53.148;8.204;2023-11-21T13:30:16;52.90;42.95;70.35;;
49215;Laerm;45943;53.148;8.204;2023-11-21T13:32:44;53.50;43.48;66.54;;
49215;Laerm;45943;53.148;8.204;2023-11-21T13:35:12;58.52;43.48;78.56;;
49215;Laerm;45943;53.148;8.204;2023-11-21T13:37:50;56.47;43.13;70.78;;
49215;Laerm;45943;53.148;8.204;2023-11-21T13:40:20;59.26;43.07;73.76;;
49215;Laerm;45943;53.148;8.204;2023-11-21T13:42:49;56.89;43.36;78.15;;
49215;Laerm;45943;53.148;8.204;2023-11-21T13:45:22;55.58;43.19;72.27;;
49215;Laerm;45943;53.148;8.204;2023-11-21T13:47:52;54.06;43.07;68.72;;
49215;Laerm;45943;53.148;8.204;2023-11-21T13:50:22;54.35;43.07;71.29;;
49215;Laerm;45943;53.148;8.204;2023-11-21T13:52:49;62.63;43.79;74.81;;
49215;Laerm;45943;53.148;8.204;2023-11-21T13:55:17;58.01;42.76;75.55;;
49215;Laerm;45943;53.148;8.204;2023-11-21T13:57:43;57.61;42.63;80.52;;
49215;Laerm;45943;53.148;8.204;2023-11-21T14:00:13;52.32;42.42;68.19;;
49215;Laerm;45943;53.148;8.204;2023-11-21T14:02:58;55.57;42.95;69.27;;